Terminal Aerodrome Forecast
Issued by NWS

Home | Current Version | Previous Version | Text Only | Print | Product List | Glossary On
Versions: 1 2 3 4 5 6 7 8 9 10 11 12 13 14 15 16
000
FTUS43 KMQT 191720
TAFIWD
TAF
KIWD 191720Z 1918/2018 17013G20KT P6SM VCSH OVC050
     FM192100 19009KT P6SM -SHRA OVC060
     FM192300 VRB03KT P6SM -SHRA OVC045
     FM200200 VRB03KT 6SM -SHRA SCT010 OVC025
     FM200600 31007KT 3SM -SHRA BR OVC007
     FM201500 30012G17KT 6SM -SHSNRA BKN016
      AMD LTD TO CLD VIS AND WIND=

USA.gov is the U.S. government's official web portal to all federal, state and local government web resources and services.